createdAt,value
2018-12-02T00:00:42.024Z,19.25
2018-12-02T00:01:41.992Z,19
2018-12-02T00:02:42.107Z,19.25
2018-12-02T00:03:41.961Z,19
2018-12-02T00:04:42.037Z,19
2018-12-02T00:05:42.142Z,19
2018-12-02T00:06:41.985Z,19
2018-12-02T00:07:42.960Z,19
2018-12-02T00:08:42.150Z,19
2018-12-02T00:09:41.952Z,19
2018-12-02T00:10:42.018Z,19
2018-12-02T00:11:42.061Z,19
2018-12-02T00:12:41.889Z,19
2018-12-02T00:13:41.855Z,19
2018-12-02T00:14:41.886Z,19
2018-12-02T00:15:42.125Z,19
2018-12-02T00:16:42.024Z,19
2018-12-02T00:17:41.877Z,19
2018-12-02T00:18:42.291Z,19
2018-12-02T00:19:41.849Z,19
2018-12-02T00:20:42.054Z,19
2018-12-02T00:21:41.796Z,19
2018-12-02T00:22:41.835Z,19
2018-12-02T00:23:42.222Z,19
2018-12-02T00:24:41.998Z,19
2018-12-02T00:25:42.525Z,19
2018-12-02T00:26:42.316Z,19
2018-12-02T00:27:42.277Z,19
2018-12-02T00:28:41.804Z,19
2018-12-02T00:29:42.066Z,19
2018-12-02T00:30:41.986Z,19
2018-12-02T00:31:42.686Z,19
2018-12-02T00:32:42.031Z,19
2018-12-02T00:33:41.957Z,19
2018-12-02T00:34:41.951Z,19
2018-12-02T00:35:42.257Z,19
2018-12-02T00:36:41.981Z,19
2018-12-02T00:37:41.894Z,19
2018-12-02T00:38:42.121Z,19
2018-12-02T00:39:41.802Z,19
2018-12-02T00:40:42.084Z,19
2018-12-02T00:41:42.024Z,19
2018-12-02T00:42:42.035Z,19
2018-12-02T00:43:42.016Z,19
2018-12-02T00:44:42.393Z,19
2018-12-02T00:45:41.888Z,19
2018-12-02T00:46:42.203Z,19
2018-12-02T00:47:42.029Z,19
2018-12-02T00:48:41.874Z,19
2018-12-02T00:49:41.939Z,19
2018-12-02T00:50:42.113Z,19
2018-12-02T00:51:41.861Z,19
2018-12-02T00:52:42.198Z,19
2018-12-02T00:53:41.791Z,19
2018-12-02T00:54:42.179Z,19
2018-12-02T00:55:41.960Z,19
2018-12-02T00:56:42.007Z,19
2018-12-02T00:57:42.113Z,19
2018-12-02T00:58:41.836Z,19
2018-12-02T00:59:41.950Z,19
2018-12-02T01:00:41.901Z,19
2018-12-02T01:01:42.129Z,19
2018-12-02T01:02:41.862Z,19
2018-12-02T01:03:41.751Z,19
2018-12-02T01:04:42.036Z,19
2018-12-02T01:05:41.947Z,19
2018-12-02T01:06:42.037Z,19
2018-12-02T01:07:41.813Z,19
2018-12-02T01:08:41.985Z,19
2018-12-02T01:09:42.014Z,19
2018-12-02T01:10:41.837Z,19
2018-12-02T01:11:41.765Z,19
2018-12-02T01:12:41.892Z,19
2018-12-02T01:13:42.060Z,19
2018-12-02T01:14:41.844Z,19
2018-12-02T01:15:42.049Z,19
2018-12-02T01:16:41.872Z,19
2018-12-02T01:17:42.047Z,19
2018-12-02T01:18:41.829Z,19
2018-12-02T01:19:42.137Z,19
2018-12-02T01:20:41.890Z,18.75
2018-12-02T01:21:41.808Z,19
2018-12-02T01:22:41.735Z,19
2018-12-02T01:23:41.865Z,19
2018-12-02T01:24:42.080Z,18.75
2018-12-02T01:25:42.117Z,18.75
2018-12-02T01:26:42.272Z,18.75
2018-12-02T01:27:41.894Z,18.75
2018-12-02T01:28:42.039Z,18.75
2018-12-02T01:29:41.791Z,18.75
2018-12-02T01:30:42.201Z,18.75
2018-12-02T01:31:41.887Z,18.75
2018-12-02T01:32:41.892Z,18.75
2018-12-02T01:33:42.176Z,18.75
2018-12-02T01:34:42.128Z,18.75
2018-12-02T01:35:41.944Z,18.75
2018-12-02T01:36:42.686Z,18.75
2018-12-02T01:37:41.918Z,18.75
2018-12-02T01:38:41.862Z,18.75
2018-12-02T01:39:41.755Z,18.75
2018-12-02T01:40:41.758Z,18.75
2018-12-02T01:41:41.869Z,18.75
2018-12-02T01:42:41.977Z,18.75
2018-12-02T01:43:41.780Z,18.75
2018-12-02T01:44:42.113Z,18.75
2018-12-02T01:45:42.054Z,18.75
2018-12-02T01:46:41.881Z,18.75
2018-12-02T01:47:41.769Z,18.75
2018-12-02T01:48:41.751Z,18.75
2018-12-02T01:49:42.002Z,18.75
2018-12-02T01:50:41.850Z,18.75
2018-12-02T01:51:42.243Z,18.75
2018-12-02T01:52:42.128Z,18.75
2018-12-02T01:53:42.293Z,18.75
2018-12-02T01:54:41.772Z,18.75
2018-12-02T01:55:41.984Z,18.75
2018-12-02T01:56:42.097Z,18.75
2018-12-02T01:57:42.203Z,18.75
2018-12-02T01:58:41.969Z,18.75
2018-12-02T01:59:41.840Z,18.75
2018-12-02T02:00:41.930Z,18.75
2018-12-02T02:01:42.127Z,18.75
2018-12-02T02:02:42.017Z,18.75
2018-12-02T02:03:41.845Z,18.75
2018-12-02T02:04:41.898Z,18.75
2018-12-02T02:05:42.177Z,18.75
2018-12-02T02:06:41.785Z,18.75
2018-12-02T02:07:41.901Z,18.75
2018-12-02T02:08:41.872Z,18.75
2018-12-02T02:09:42.188Z,18.75
2018-12-02T02:10:41.777Z,18.75
2018-12-02T02:11:41.767Z,18.75
2018-12-02T02:12:42.217Z,18.75
2018-12-02T02:13:41.905Z,18.75
2018-12-02T02:14:41.943Z,18.75
2018-12-02T02:15:42.005Z,18.75
2018-12-02T02:16:42.365Z,18.75
2018-12-02T02:17:42.142Z,18.75
2018-12-02T02:18:42.174Z,18.75
2018-12-02T02:19:41.826Z,18.75
2018-12-02T02:20:41.812Z,18.75
2018-12-02T02:21:41.827Z,18.75
2018-12-02T02:22:42.016Z,18.75
2018-12-02T02:23:42.291Z,18.75
2018-12-02T02:24:42.099Z,18.75
2018-12-02T02:25:41.943Z,18.75
2018-12-02T02:26:42.033Z,18.75
2018-12-02T02:27:42.309Z,18.75
2018-12-02T02:28:41.922Z,18.75
2018-12-02T02:29:41.837Z,18.75
2018-12-02T02:30:41.808Z,18.75
2018-12-02T02:31:42.224Z,18.75
2018-12-02T02:32:41.978Z,18.75
2018-12-02T02:33:41.967Z,18.75
2018-12-02T02:34:42.499Z,18.75
2018-12-02T02:35:41.843Z,18.75
2018-12-02T02:36:42.214Z,18.75
2018-12-02T02:37:41.784Z,18.75
2018-12-02T02:38:41.832Z,18.75
2018-12-02T02:39:42.006Z,18.75
2018-12-02T02:40:41.844Z,18.75
2018-12-02T02:41:42.006Z,18.75
2018-12-02T02:42:41.882Z,18.75
2018-12-02T02:43:41.932Z,18.75
2018-12-02T02:44:41.816Z,18.75
2018-12-02T02:45:41.981Z,18.75
2018-12-02T02:46:41.801Z,18.75
2018-12-02T02:47:41.907Z,18.75
2018-12-02T02:48:41.768Z,18.75
2018-12-02T02:49:41.890Z,18.75
2018-12-02T02:50:42.034Z,18.75
2018-12-02T02:51:41.797Z,18.75
2018-12-02T02:52:42.191Z,18.75
2018-12-02T02:53:41.818Z,18.75
2018-12-02T02:54:41.841Z,18.75
2018-12-02T02:55:41.700Z,18.75
2018-12-02T02:56:41.730Z,18.75
2018-12-02T02:57:41.961Z,18.75
2018-12-02T02:58:41.925Z,18.75
2018-12-02T02:59:41.973Z,18.75
2018-12-02T03:00:41.773Z,18.75
2018-12-02T03:01:41.857Z,18.75
2018-12-02T03:02:41.727Z,18.75
2018-12-02T03:03:42.181Z,18.75
2018-12-02T03:04:42.078Z,18.75
2018-12-02T03:05:41.761Z,18.75
2018-12-02T03:06:42.288Z,18.75
2018-12-02T03:07:41.798Z,18.75
2018-12-02T03:08:42.856Z,18.75
2018-12-02T03:09:41.890Z,18.75
2018-12-02T03:10:42.229Z,18.75
2018-12-02T03:11:42.184Z,18.5
2018-12-02T03:12:42.244Z,18.75
2018-12-02T03:13:42.163Z,18.75
2018-12-02T03:14:42.824Z,18.75
2018-12-02T03:15:41.958Z,18.75
2018-12-02T03:16:41.867Z,18.75
2018-12-02T03:17:41.995Z,18.5
2018-12-02T03:18:41.982Z,18.5
2018-12-02T03:19:41.711Z,18.5
2018-12-02T03:20:41.591Z,18.5
2018-12-02T03:21:41.861Z,18.75
2018-12-02T03:22:42.096Z,18.5
2018-12-02T03:23:42.115Z,18.75
2018-12-02T03:24:42.557Z,18.5
2018-12-02T03:25:41.833Z,18.75
2018-12-02T03:26:41.768Z,18.5
2018-12-02T03:27:41.712Z,18.5
2018-12-02T03:28:42.045Z,18.5
2018-12-02T03:29:41.990Z,18.5
2018-12-02T03:30:42.163Z,18.5
2018-12-02T03:31:41.884Z,18.5
2018-12-02T03:32:42.062Z,18.5
2018-12-02T03:33:42.208Z,18.5
2018-12-02T03:34:41.725Z,18.5
2018-12-02T03:35:42.133Z,18.5
2018-12-02T03:36:41.703Z,18.5
2018-12-02T03:37:41.850Z,18.5
2018-12-02T03:38:42.145Z,18.5
2018-12-02T03:39:41.905Z,18.5
2018-12-02T03:40:41.973Z,18.5
2018-12-02T03:41:42.078Z,18.5
2018-12-02T03:42:42.323Z,18.5
2018-12-02T03:43:42.050Z,18.5
2018-12-02T03:44:41.895Z,18.5
2018-12-02T03:45:41.871Z,18.5
2018-12-02T03:46:41.967Z,18.5
2018-12-02T03:47:42.038Z,18.5
2018-12-02T03:48:41.754Z,18.5
2018-12-02T03:49:42.191Z,18.5
2018-12-02T03:50:42.259Z,18.5
2018-12-02T03:51:42.215Z,18.5
2018-12-02T03:52:41.951Z,18.5
2018-12-02T03:53:41.858Z,18.5
2018-12-02T03:54:42.119Z,18.5
2018-12-02T03:55:41.732Z,18.5
2018-12-02T03:56:42.365Z,18.5
2018-12-02T03:57:41.847Z,18.5
2018-12-02T03:58:41.988Z,18.5
2018-12-02T03:59:41.719Z,18.5
2018-12-02T04:00:42.230Z,18.5
2018-12-02T04:01:42.149Z,18.5
2018-12-02T04:02:42.093Z,18.5
2018-12-02T04:03:42.322Z,18.5
2018-12-02T04:04:41.812Z,18.5
2018-12-02T04:05:42.098Z,18.5
2018-12-02T04:06:42.002Z,18.5
2018-12-02T04:07:41.975Z,18.5
2018-12-02T04:08:41.739Z,18.5
2018-12-02T04:09:42.601Z,18.5
2018-12-02T04:10:41.685Z,18.5
2018-12-02T04:11:41.975Z,18.5
2018-12-02T04:12:42.243Z,18.5
2018-12-02T04:13:42.369Z,18.5
2018-12-02T04:14:42.265Z,18.5
2018-12-02T04:15:42.086Z,18.5
2018-12-02T04:16:41.962Z,18.5
2018-12-02T04:17:41.808Z,18.5
2018-12-02T04:18:41.629Z,18.5
2018-12-02T04:19:42.319Z,18.5
2018-12-02T04:20:42.109Z,18.5
2018-12-02T04:21:41.907Z,18.5
2018-12-02T04:22:41.745Z,18.5
2018-12-02T04:23:41.834Z,18.5
2018-12-02T04:24:42.801Z,18.5
2018-12-02T04:25:42.057Z,18.5
2018-12-02T04:26:41.681Z,18.5
2018-12-02T04:27:41.680Z,18.5
2018-12-02T04:28:41.911Z,18.5
2018-12-02T04:29:42.084Z,18.5
2018-12-02T04:30:41.875Z,18.5
2018-12-02T04:31:41.869Z,18.5
2018-12-02T04:32:41.868Z,18.5
2018-12-02T04:33:41.751Z,18.5
2018-12-02T04:34:41.775Z,18.5
2018-12-02T04:35:41.910Z,18.5
2018-12-02T04:36:41.720Z,18.5
2018-12-02T04:37:41.853Z,18.5
2018-12-02T04:38:41.837Z,18.5
2018-12-02T04:39:41.882Z,18.5
2018-12-02T04:40:41.804Z,18.5
2018-12-02T04:41:41.924Z,18.5
2018-12-02T04:42:41.649Z,18.5
2018-12-02T04:43:41.849Z,18.5
2018-12-02T04:44:42.026Z,18.5
2018-12-02T04:45:41.687Z,18.5
2018-12-02T04:46:42.200Z,18.5
2018-12-02T04:47:41.771Z,18.5
2018-12-02T04:48:42.191Z,18.5
2018-12-02T04:49:41.918Z,18.5
2018-12-02T04:50:42.127Z,18.5
2018-12-02T04:51:41.749Z,18.5
2018-12-02T04:52:42.245Z,18.5
2018-12-02T04:53:41.924Z,18.5
2018-12-02T04:54:41.801Z,18.5
2018-12-02T04:55:41.963Z,18.5
2018-12-02T04:56:41.699Z,18.5
2018-12-02T04:57:41.826Z,18.5
2018-12-02T04:58:41.710Z,18.5
2018-12-02T04:59:41.769Z,18.5
2018-12-02T05:00:42.015Z,18.5
2018-12-02T05:01:41.837Z,18.5
2018-12-02T05:02:42.495Z,18.5
2018-12-02T05:03:41.914Z,18.5
2018-12-02T05:04:42.295Z,18.5
2018-12-02T05:05:41.808Z,18.5
2018-12-02T05:06:41.921Z,18.75
2018-12-02T05:07:42.088Z,18.75
2018-12-02T05:08:42.043Z,18.75
2018-12-02T05:09:41.994Z,18.75
2018-12-02T05:10:41.811Z,18.75
2018-12-02T05:11:41.928Z,18.75
2018-12-02T05:12:43.242Z,18.75
2018-12-02T05:13:41.888Z,18.75
2018-12-02T05:14:41.644Z,18.75
2018-12-02T05:15:41.823Z,18.75
2018-12-02T05:16:42.036Z,18.75
2018-12-02T05:17:41.782Z,18.75
2018-12-02T05:18:42.217Z,18.75
2018-12-02T05:19:41.849Z,18.75
2018-12-02T05:20:41.935Z,18.75
2018-12-02T05:21:42.018Z,18.75
2018-12-02T05:22:41.849Z,18.75
2018-12-02T05:23:41.735Z,18.75
2018-12-02T05:24:41.851Z,18.75
2018-12-02T05:25:42.206Z,18.75
2018-12-02T05:26:41.686Z,18.75
2018-12-02T05:27:43.087Z,19
2018-12-02T05:28:41.688Z,19
2018-12-02T05:29:41.909Z,19
2018-12-02T05:30:41.700Z,19
2018-12-02T05:31:42.223Z,19
2018-12-02T05:32:42.095Z,19
2018-12-02T05:33:42.218Z,19
2018-12-02T05:34:41.920Z,19
2018-12-02T05:35:41.797Z,19
2018-12-02T05:36:42.043Z,19
2018-12-02T05:37:41.672Z,19
2018-12-02T05:39:41.658Z,19
2018-12-02T05:40:41.985Z,19
2018-12-02T05:41:42.036Z,19
2018-12-02T05:42:41.719Z,19
2018-12-02T05:43:42.050Z,19
2018-12-02T05:44:42.333Z,19
2018-12-02T05:45:42.116Z,19
2018-12-02T05:46:41.840Z,19
2018-12-02T05:47:41.842Z,19
2018-12-02T05:48:41.729Z,19.25
2018-12-02T05:49:41.682Z,19.25
2018-12-02T05:50:42.364Z,19.25
2018-12-02T05:51:41.803Z,19.25
2018-12-02T05:52:41.827Z,19.25
2018-12-02T05:53:41.783Z,19.25
2018-12-02T05:54:42.191Z,19.25
2018-12-02T05:55:41.775Z,19.25
2018-12-02T05:56:41.792Z,19.25
2018-12-02T05:57:41.631Z,19.25
2018-12-02T05:58:41.638Z,19.25
2018-12-02T05:59:41.915Z,19.25
2018-12-02T06:00:41.765Z,19.25
2018-12-02T06:01:41.910Z,19.25
2018-12-02T06:02:41.771Z,19.25
2018-12-02T06:03:41.899Z,19.25
2018-12-02T06:04:41.756Z,19.25
2018-12-02T06:05:41.825Z,19.25
2018-12-02T06:06:41.675Z,19.25
2018-12-02T06:07:41.789Z,19.25
2018-12-02T06:08:42.287Z,19.25
2018-12-02T06:09:41.710Z,19.25
2018-12-02T06:10:41.828Z,19.25
2018-12-02T06:11:44.001Z,19.25
2018-12-02T06:12:41.871Z,19.25
2018-12-02T06:13:41.893Z,19.25
2018-12-02T06:14:41.835Z,19.25
2018-12-02T06:15:41.921Z,19.25
2018-12-02T06:16:41.625Z,19.25
2018-12-02T06:17:41.839Z,19.25
2018-12-02T06:18:41.787Z,19.25
2018-12-02T06:19:41.882Z,19.25
2018-12-02T06:20:41.991Z,19.25
2018-12-02T06:21:42.151Z,19.25
2018-12-02T06:22:41.635Z,19.25
2018-12-02T06:23:41.711Z,19.25
2018-12-02T06:24:41.856Z,19.25
2018-12-02T06:25:46.756Z,19.25
2018-12-02T06:26:41.992Z,19.25
2018-12-02T06:27:41.727Z,19.25
2018-12-02T06:28:41.783Z,19.25
2018-12-02T06:29:42.017Z,19.5
2018-12-02T06:30:41.773Z,19.5
2018-12-02T06:31:42.063Z,19.5
2018-12-02T06:32:41.660Z,19.5
2018-12-02T06:33:42.154Z,19.5
2018-12-02T06:34:42.099Z,19.5
2018-12-02T06:35:41.877Z,19.5
2018-12-02T06:36:41.889Z,19.5
2018-12-02T06:37:41.897Z,19.5
2018-12-02T06:38:41.854Z,19.5
2018-12-02T06:39:41.700Z,19.5
2018-12-02T06:40:42.072Z,19.5
2018-12-02T06:41:41.784Z,19.5
2018-12-02T06:42:41.912Z,19.5
2018-12-02T06:43:41.644Z,19.5
2018-12-02T06:44:41.926Z,19.5
2018-12-02T06:45:41.763Z,19.5
2018-12-02T06:46:41.780Z,19.5
2018-12-02T06:47:41.726Z,19.5
2018-12-02T06:48:41.948Z,19.5
2018-12-02T06:49:41.910Z,19.5
2018-12-02T06:50:41.847Z,19.5
2018-12-02T06:51:42.068Z,19.5
2018-12-02T06:52:42.271Z,19.5
2018-12-02T06:53:41.857Z,19.5
2018-12-02T06:54:41.638Z,19.5
2018-12-02T06:55:42.134Z,19.5
2018-12-02T06:56:42.093Z,19.5
2018-12-02T06:57:41.717Z,19.5
2018-12-02T06:58:42.118Z,19.5
2018-12-02T06:59:41.786Z,19.5
2018-12-02T07:00:42.049Z,19.5
2018-12-02T07:01:41.893Z,19.5
2018-12-02T07:02:42.115Z,19.5
2018-12-02T07:03:41.872Z,19.5
2018-12-02T07:04:41.705Z,19.5
2018-12-02T07:05:41.859Z,19.5
2018-12-02T07:06:41.748Z,19.5
2018-12-02T07:07:41.783Z,19.5
2018-12-02T07:08:41.688Z,19.5
2018-12-02T07:09:41.799Z,19.5
2018-12-02T07:10:41.921Z,19.5
2018-12-02T07:11:41.736Z,19.5
2018-12-02T07:12:41.597Z,19.5
2018-12-02T07:13:41.751Z,19.5
2018-12-02T07:14:42.159Z,19.5
2018-12-02T07:15:41.665Z,19.5
2018-12-02T07:16:41.980Z,19.5
2018-12-02T07:17:41.724Z,19.5
2018-12-02T07:18:42.043Z,19.5
2018-12-02T07:19:41.691Z,19.5
2018-12-02T07:20:42.719Z,19.5
2018-12-02T07:21:42.290Z,19.5
2018-12-02T07:22:41.890Z,19.5
2018-12-02T07:23:42.135Z,19.5
2018-12-02T07:24:41.700Z,19.75
2018-12-02T07:25:42.113Z,19.5
2018-12-02T07:26:41.955Z,19.75
2018-12-02T07:27:41.726Z,19.75
2018-12-02T07:28:41.935Z,19.75
2018-12-02T07:29:41.690Z,19.75
2018-12-02T07:30:41.900Z,19.75
2018-12-02T07:31:41.708Z,19.75
2018-12-02T07:32:41.902Z,19.75
2018-12-02T07:33:42.076Z,19.75
2018-12-02T07:34:42.698Z,19.75
2018-12-02T07:35:41.900Z,19.75
2018-12-02T07:36:41.680Z,19.75
2018-12-02T07:37:41.552Z,19.75
2018-12-02T07:38:41.795Z,19.75
2018-12-02T07:39:41.712Z,19.75
2018-12-02T07:40:41.617Z,19.75
2018-12-02T07:41:41.849Z,19.75
2018-12-02T07:42:41.722Z,19.75
2018-12-02T07:43:41.708Z,19.75
2018-12-02T07:44:42.262Z,19.75
2018-12-02T07:45:41.780Z,19.75
2018-12-02T07:46:41.619Z,19.75
2018-12-02T07:47:41.757Z,19.75
2018-12-02T07:48:41.812Z,19.75
2018-12-02T07:49:41.685Z,19.75
2018-12-02T07:50:41.907Z,19.75
2018-12-02T07:51:41.707Z,19.75
2018-12-02T07:52:41.815Z,19.75
2018-12-02T07:53:41.885Z,19.75
2018-12-02T07:54:41.657Z,19.75
2018-12-02T07:55:41.817Z,19.75
2018-12-02T07:56:41.676Z,19.75
2018-12-02T07:57:41.727Z,19.75
2018-12-02T07:58:41.893Z,19.75
2018-12-02T07:59:41.785Z,19.75
2018-12-02T08:00:41.787Z,19.75
2018-12-02T08:01:41.757Z,19.75
2018-12-02T08:02:42.022Z,19.75
2018-12-02T08:03:41.672Z,19.75
2018-12-02T08:04:42.015Z,19.75
2018-12-02T08:05:42.245Z,19.75
2018-12-02T08:06:41.687Z,19.75
2018-12-02T08:07:42.128Z,19.75
2018-12-02T08:08:41.665Z,19.75
2018-12-02T08:09:42.162Z,19.75
2018-12-02T08:10:41.709Z,19.75
2018-12-02T08:11:41.829Z,19.75
2018-12-02T08:12:41.900Z,19.75
2018-12-02T08:13:41.667Z,19.75
2018-12-02T08:14:41.956Z,19.75
2018-12-02T08:15:41.664Z,19.75
2018-12-02T08:16:42.024Z,19.75
2018-12-02T08:17:41.691Z,19.75
2018-12-02T08:18:42.006Z,19.75
2018-12-02T08:19:41.743Z,19.75
2018-12-02T08:20:41.797Z,19.75
2018-12-02T08:21:41.693Z,19.75
2018-12-02T08:22:41.574Z,19.75
2018-12-02T08:23:42.038Z,19.75
2018-12-02T08:24:41.593Z,19.75
2018-12-02T08:25:41.740Z,19.75
2018-12-02T08:26:41.640Z,19.75
2018-12-02T08:27:41.710Z,19.75
2018-12-02T08:28:41.869Z,19.75
2018-12-02T08:29:41.663Z,19.75
2018-12-02T08:30:42.176Z,19.75
2018-12-02T08:31:42.061Z,19.75
2018-12-02T08:32:41.892Z,19.75
2018-12-02T08:33:41.738Z,19.75
2018-12-02T08:34:42.053Z,19.75
2018-12-02T08:35:41.834Z,19.75
2018-12-02T08:36:41.841Z,19.75
2018-12-02T08:37:42.230Z,19.75
2018-12-02T08:38:41.755Z,19.75
2018-12-02T08:39:42.037Z,19.75
2018-12-02T08:40:41.603Z,19.75
2018-12-02T08:41:42.050Z,19.75
2018-12-02T08:42:41.994Z,19.75
2018-12-02T08:43:42.167Z,19.75
2018-12-02T08:44:42.123Z,19.75
2018-12-02T08:45:42.085Z,19.75
2018-12-02T08:46:41.744Z,19.75
2018-12-02T08:47:41.764Z,19.75
2018-12-02T08:48:42.083Z,19.75
2018-12-02T08:49:43.535Z,19.75
2018-12-02T08:50:41.884Z,19.75
2018-12-02T08:51:41.906Z,19.75
2018-12-02T08:52:41.714Z,19.75
2018-12-02T08:53:41.907Z,19.75
2018-12-02T08:54:41.805Z,19.75
2018-12-02T08:55:42.150Z,20
2018-12-02T08:56:41.829Z,20
2018-12-02T08:57:41.704Z,20
2018-12-02T08:58:41.691Z,20
2018-12-02T08:59:41.970Z,20
2018-12-02T09:00:41.882Z,20
2018-12-02T09:01:41.621Z,20
2018-12-02T09:02:41.858Z,20
2018-12-02T09:03:42.042Z,20
2018-12-02T09:04:42.109Z,20
2018-12-02T09:05:42.039Z,20
2018-12-02T09:06:41.767Z,20
2018-12-02T09:07:42.189Z,20
2018-12-02T09:08:41.947Z,20
2018-12-02T09:09:42.052Z,20
2018-12-02T09:10:41.676Z,20
2018-12-02T09:11:41.950Z,20
2018-12-02T09:12:41.617Z,20
2018-12-02T09:13:41.711Z,20
2018-12-02T09:14:41.790Z,20
2018-12-02T09:15:42.562Z,20
2018-12-02T09:16:42.021Z,20
2018-12-02T09:17:41.664Z,20
2018-12-02T09:18:41.871Z,20
2018-12-02T09:19:41.711Z,20
2018-12-02T09:20:41.758Z,20
2018-12-02T09:21:41.715Z,20
2018-12-02T09:22:41.628Z,20
2018-12-02T09:23:47.835Z,20
2018-12-02T09:24:41.633Z,20
2018-12-02T09:25:41.746Z,20.25
2018-12-02T09:26:41.741Z,20.25
2018-12-02T09:27:41.902Z,20.25
2018-12-02T09:28:41.803Z,20.25
2018-12-02T09:29:41.689Z,20.25
2018-12-02T09:30:41.859Z,20.25
2018-12-02T09:31:41.778Z,20.25
2018-12-02T09:32:41.691Z,20.25
2018-12-02T09:33:41.637Z,20.25
2018-12-02T09:34:41.624Z,20.25
2018-12-02T09:35:41.735Z,20.25
2018-12-02T09:36:41.919Z,20.25
2018-12-02T09:37:41.744Z,20.25
2018-12-02T09:38:42.471Z,20.25
2018-12-02T09:39:41.701Z,20.25
2018-12-02T09:40:41.539Z,20.25
2018-12-02T09:41:41.772Z,20.25
2018-12-02T09:42:41.902Z,20.25
2018-12-02T09:43:41.661Z,20.25
2018-12-02T09:44:42.128Z,20.25
2018-12-02T09:45:42.199Z,20.25
2018-12-02T09:46:41.729Z,20.25
2018-12-02T09:47:41.764Z,20.25
2018-12-02T09:48:42.173Z,20.25
2018-12-02T09:49:41.677Z,20.25
2018-12-02T09:50:41.986Z,20.25
2018-12-02T09:51:41.533Z,20.25
2018-12-02T09:52:42.120Z,20.25
2018-12-02T09:53:41.858Z,20.25
2018-12-02T09:54:41.646Z,20.25
2018-12-02T09:55:42.161Z,20.25
2018-12-02T09:56:42.008Z,20.25
2018-12-02T09:57:42.062Z,20.25
2018-12-02T09:58:41.791Z,20.25
2018-12-02T09:59:41.800Z,20.25
2018-12-02T10:00:41.907Z,20.25
2018-12-02T10:01:41.611Z,20.25
2018-12-02T10:02:41.823Z,20.25
2018-12-02T10:03:41.667Z,20.25
2018-12-02T10:04:41.754Z,20.25
2018-12-02T10:05:42.480Z,20.25
2018-12-02T10:06:42.708Z,20.25
2018-12-02T10:07:41.681Z,20.25
2018-12-02T10:08:41.696Z,20.25
2018-12-02T10:09:42.236Z,20
2018-12-02T10:10:41.718Z,20.25
2018-12-02T10:11:41.701Z,20.25
2018-12-02T10:12:44.965Z,20
2018-12-02T10:13:41.896Z,20.25
2018-12-02T10:14:41.808Z,20.25
2018-12-02T10:15:42.038Z,20.25
2018-12-02T10:16:41.682Z,20.25
2018-12-02T10:17:41.780Z,20.25
2018-12-02T10:18:41.626Z,20.25
2018-12-02T10:19:41.859Z,20.25
2018-12-02T10:20:41.681Z,20.25
2018-12-02T10:21:42.089Z,20.25
2018-12-02T10:22:41.727Z,20.25
2018-12-02T10:23:42.326Z,20.25
2018-12-02T10:24:41.792Z,20.25
2018-12-02T10:25:41.638Z,20.25
2018-12-02T10:26:41.717Z,20.25
2018-12-02T10:27:41.778Z,20.25
2018-12-02T10:28:43.016Z,20.25
2018-12-02T10:29:41.851Z,20.25
2018-12-02T10:30:41.823Z,20.25
2018-12-02T10:31:42.028Z,20.25
2018-12-02T10:32:42.966Z,20.25
2018-12-02T10:33:41.788Z,20.25
2018-12-02T10:34:42.339Z,20.25
2018-12-02T10:35:42.034Z,20.25
2018-12-02T10:36:42.664Z,20.25
2018-12-02T10:37:41.798Z,20.25
2018-12-02T10:38:41.933Z,20.25
2018-12-02T10:39:41.618Z,20.25
2018-12-02T10:40:42.141Z,20.25
2018-12-02T10:41:41.603Z,20.25
2018-12-02T10:42:41.950Z,20.25
2018-12-02T10:43:41.858Z,20.25
2018-12-02T10:44:41.801Z,20.25
2018-12-02T10:45:41.811Z,20.25
2018-12-02T10:46:44.389Z,20.25
2018-12-02T10:47:41.727Z,20.25
2018-12-02T10:48:42.078Z,20.25
2018-12-02T10:49:41.741Z,20.25
2018-12-02T10:50:41.790Z,20.25
2018-12-02T10:51:41.635Z,20.25
2018-12-02T10:52:41.743Z,20.25
2018-12-02T10:53:42.139Z,20.25
2018-12-02T10:54:41.784Z,20.25
2018-12-02T10:55:41.670Z,20.25
2018-12-02T10:56:41.674Z,20.25
2018-12-02T10:57:41.772Z,20.25
2018-12-02T10:58:41.704Z,20.25
2018-12-02T10:59:41.809Z,20.25
2018-12-02T11:00:41.705Z,20.25
2018-12-02T11:01:42.109Z,20.25
2018-12-02T11:02:41.975Z,20.25
2018-12-02T11:03:42.786Z,20.25
2018-12-02T11:04:42.415Z,20.25
2018-12-02T11:05:43.817Z,20.25
2018-12-02T11:06:43.014Z,20.25
2018-12-02T11:07:42.844Z,20.25
2018-12-02T11:08:42.976Z,20.25
2018-12-02T11:09:42.908Z,20.25
2018-12-02T11:10:42.323Z,20.25
2018-12-02T11:11:42.403Z,20.25
2018-12-02T11:12:43.147Z,20.5
2018-12-02T11:13:42.658Z,20.25
2018-12-02T11:14:42.085Z,20.5
2018-12-02T11:15:41.801Z,20.5
2018-12-02T11:16:44.758Z,20.5
2018-12-02T11:17:42.700Z,20.25
2018-12-02T11:18:42.282Z,20.5
2018-12-02T11:19:42.630Z,20.5
2018-12-02T11:20:42.837Z,20.5
2018-12-02T11:21:41.832Z,20.5
2018-12-02T11:22:42.351Z,20.5
2018-12-02T11:23:43.258Z,20.5
2018-12-02T11:24:42.356Z,20.5
2018-12-02T11:25:41.894Z,20.5
2018-12-02T11:26:41.895Z,20.5
2018-12-02T11:27:41.916Z,20.5
2018-12-02T11:28:42.022Z,20.5
2018-12-02T11:29:43.022Z,20.5
2018-12-02T11:30:41.758Z,20.5
2018-12-02T11:31:41.611Z,20.5
2018-12-02T11:32:41.757Z,20.5
2018-12-02T11:33:41.753Z,20.5
2018-12-02T11:34:41.574Z,20.5
2018-12-02T11:35:41.730Z,20.5
2018-12-02T11:36:41.781Z,20.5
2018-12-02T11:37:41.672Z,20.5
2018-12-02T11:38:41.582Z,20.5
2018-12-02T11:39:41.894Z,20.5
2018-12-02T11:40:41.915Z,20.5
2018-12-02T11:41:41.686Z,20.5
2018-12-02T11:42:41.724Z,20.5
2018-12-02T11:43:41.916Z,20.5
2018-12-02T11:44:41.821Z,20.5
2018-12-02T11:45:41.957Z,20.5
2018-12-02T11:46:41.787Z,20.5
2018-12-02T11:47:41.548Z,20.5
2018-12-02T11:48:42.721Z,20.5
2018-12-02T11:49:42.419Z,20.5
2018-12-02T11:50:41.710Z,20.5
2018-12-02T11:51:41.954Z,20.5
2018-12-02T11:52:42.261Z,20.5
2018-12-02T11:53:42.058Z,20.5
2018-12-02T11:54:41.775Z,20.5
2018-12-02T11:55:42.078Z,20.5
2018-12-02T11:56:41.637Z,20.5
2018-12-02T11:57:41.670Z,20.5
2018-12-02T11:58:41.674Z,20.5
2018-12-02T11:59:41.799Z,20.5
2018-12-02T12:00:41.829Z,20.5
2018-12-02T12:01:41.688Z,20.5
2018-12-02T12:02:41.804Z,20.5
2018-12-02T12:03:41.511Z,20.5
2018-12-02T12:04:41.734Z,20.5
2018-12-02T12:05:41.707Z,20.5
2018-12-02T12:06:42.021Z,20.5
2018-12-02T12:07:42.062Z,20.5
2018-12-02T12:08:42.017Z,20.5
2018-12-02T12:09:41.893Z,20.5
2018-12-02T12:10:42.241Z,20.5
2018-12-02T12:11:41.563Z,20.5
2018-12-02T12:12:41.680Z,20.5
2018-12-02T12:13:41.679Z,20.5
2018-12-02T12:14:41.818Z,20.5
2018-12-02T12:15:41.715Z,20.5
2018-12-02T12:16:41.923Z,20.5
2018-12-02T12:17:41.940Z,20.5
2018-12-02T12:18:41.825Z,20.5
2018-12-02T12:19:42.275Z,20.5
2018-12-02T12:20:42.463Z,20.5
2018-12-02T12:21:41.512Z,20.5
2018-12-02T12:22:42.924Z,20.5
2018-12-02T12:23:41.602Z,20.5
2018-12-02T12:24:41.798Z,20.5
2018-12-02T12:25:41.675Z,20.5
2018-12-02T12:26:41.781Z,20.5
2018-12-02T12:27:41.706Z,20.5
2018-12-02T12:28:42.026Z,20.5
2018-12-02T12:29:41.828Z,20.5
2018-12-02T12:30:41.788Z,20.5
2018-12-02T12:31:41.684Z,20.5
2018-12-02T12:32:42.057Z,20.5
2018-12-02T12:33:41.820Z,20.5
2018-12-02T12:34:41.495Z,20.5
2018-12-02T12:35:41.738Z,20.5
2018-12-02T12:36:42.443Z,20.5
2018-12-02T12:37:41.681Z,20.5
2018-12-02T12:38:41.575Z,20.5
2018-12-02T12:39:41.650Z,20.5
2018-12-02T12:40:41.625Z,20.5
2018-12-02T12:41:41.596Z,20.5
2018-12-02T12:42:41.601Z,20.5
2018-12-02T12:43:41.693Z,20.5
2018-12-02T12:44:41.680Z,20.5
2018-12-02T12:45:41.690Z,20.5
2018-12-02T12:46:41.796Z,20.5
2018-12-02T12:47:41.788Z,20.5
2018-12-02T12:48:41.919Z,20.25
2018-12-02T12:49:41.767Z,20.25
2018-12-02T12:50:42.167Z,20.25
2018-12-02T12:51:41.634Z,20.25
2018-12-02T12:52:41.639Z,20.25
2018-12-02T12:53:41.699Z,20.25
2018-12-02T12:54:41.509Z,20.25
2018-12-02T12:55:42.025Z,20.25
2018-12-02T12:56:41.749Z,20.25
2018-12-02T12:57:42.224Z,20.25
2018-12-02T12:58:42.038Z,20.25
2018-12-02T12:59:41.857Z,20.25
2018-12-02T13:00:41.786Z,20.25
2018-12-02T13:01:41.855Z,20.25
2018-12-02T13:02:42.053Z,20.25
2018-12-02T13:03:41.972Z,20.25
2018-12-02T13:04:41.535Z,20.25
2018-12-02T13:05:41.824Z,20.25
2018-12-02T13:06:41.983Z,20.25
2018-12-02T13:07:41.788Z,20.25
2018-12-02T13:08:41.908Z,20.25
2018-12-02T13:09:42.023Z,20.25
2018-12-02T13:10:41.468Z,20.25
2018-12-02T13:11:41.681Z,20.25
2018-12-02T13:12:41.799Z,20.25
2018-12-02T13:13:41.603Z,20.25
2018-12-02T13:14:41.802Z,20.25